Captain Johnny — WDD6683 — position and weather

sailwx.info

Track history (hours):
 
Tides and Currents Weather Stations Pressure Air Temp Water Temp Dewpoint Dewpoint Depression Visibility Wind Speed Wind Dir Waves Ship Positions

Captain Johnny

Owner: Captain Johnny, Inc., Deltaville, VA. More information available from US FCC via Universal Licensing System and Coast Guard Vessel Documentation Center.

Last reported at 2018-Jan-19 17:22 UTC. Time now 2018-Jan-22 17:56 UTC.
Position N 36°57' W 076°20'.

Length 20 m; draft 3.5 m.

Type: Tug. MMSI: 367176230.

Date/timePositionNaut miles runAvg speedWind from/ knotsBaromVisibWave heightAir tempDewpointWater temp
2018-Jan-19 17:22N 36°57' W 076°20'3 8.0
2018-Jan-19 17:00N 36°54' W 076°20'4 7.3
2018-Jan-19 16:30N 36°51' W 076°18'3 5.5
2018-Jan-19 16:00N 36°48' W 076°17'0 0.1
2018-Jan-19 15:30N 36°48' W 076°17'0 0.0
2018-Jan-19 15:01N 36°48' W 076°17'0 0.3
2018-Jan-19 14:30N 36°48' W 076°17'0 0.1
2018-Jan-19 14:00N 36°48' W 076°17'3 6.3
2018-Jan-19 13:30N 36°51' W 076°18'4 6.9
2018-Jan-19 12:56N 36°55' W 076°20'63 6.5
2018-Jan-19 03:17N 37°58' W 076°17'4 7.0
2018-Jan-19 02:44N 37°60' W 076°21'2 7.1
2018-Jan-19 02:28N 38°01' W 076°23'3 7.1
2018-Jan-19 02:00N 38°02' W 076°27'  
Track history (hours):
 
Tides and Currents Weather Stations Pressure Air Temp Water Temp Dewpoint Dewpoint Depression Visibility Wind Speed Wind Dir Waves Ship Positions

Captain Johnny

Owner: Captain Johnny, Inc., Deltaville, VA. More information available from US FCC via Universal Licensing System and Coast Guard Vessel Documentation Center.

Last reported at 2018-Jan-19 17:22 UTC. Time now 2018-Jan-22 17:56 UTC.
Position N 36°57' W 076°20'.

Length 20 m; draft 3.5 m.

Type: Tug. MMSI: 367176230.

Date/timePositionNaut miles runAvg speedWind from/ knotsBaromVisibWave heightAir tempDewpointWater temp
2018-Jan-19 17:22N 36°57' W 076°20'3 8.0
2018-Jan-19 17:00N 36°54' W 076°20'4 7.3
2018-Jan-19 16:30N 36°51' W 076°18'3 5.5
2018-Jan-19 16:00N 36°48' W 076°17'0 0.1
2018-Jan-19 15:30N 36°48' W 076°17'0 0.0
2018-Jan-19 15:01N 36°48' W 076°17'0 0.3
2018-Jan-19 14:30N 36°48' W 076°17'0 0.1
2018-Jan-19 14:00N 36°48' W 076°17'3 6.3
2018-Jan-19 13:30N 36°51' W 076°18'4 6.9
2018-Jan-19 12:56N 36°55' W 076°20'63 6.5
2018-Jan-19 03:17N 37°58' W 076°17'4 7.0
2018-Jan-19 02:44N 37°60' W 076°21'2 7.1
2018-Jan-19 02:28N 38°01' W 076°23'3 7.1
2018-Jan-19 02:00N 38°02' W 076°27'  

Dump ship's entire track history